createdAt,value
2018-04-16T00:00:54.681Z,61.33
2018-04-16T00:02:01.437Z,61.27
2018-04-16T00:03:08.273Z,61.26
2018-04-16T00:04:15.147Z,61.27
2018-04-16T00:05:21.898Z,61.23
2018-04-16T00:06:28.709Z,61.25
2018-04-16T00:07:35.503Z,61.26
2018-04-16T00:08:42.261Z,61.30
2018-04-16T00:09:48.943Z,61.41
2018-04-16T00:10:55.772Z,61.52
2018-04-16T00:12:02.481Z,61.62
2018-04-16T00:13:09.227Z,61.75
2018-04-16T00:14:15.976Z,61.81
2018-04-16T00:15:22.711Z,61.94
2018-04-16T00:16:29.772Z,61.95
2018-04-16T00:17:36.502Z,61.94
2018-04-16T00:18:43.248Z,61.89
2018-04-16T00:19:49.991Z,61.88
2018-04-16T00:20:56.739Z,61.96
2018-04-16T00:22:03.488Z,61.90
2018-04-16T00:23:10.295Z,61.81
2018-04-16T00:24:17.080Z,61.87
2018-04-16T00:25:23.866Z,61.83
2018-04-16T00:26:31.532Z,61.82
2018-04-16T00:27:37.336Z,61.91
2018-04-16T00:28:44.081Z,61.94
2018-04-16T00:29:50.895Z,61.80
2018-04-16T00:30:57.752Z,61.90
2018-04-16T00:32:04.861Z,61.90
2018-04-16T00:33:11.655Z,61.79
2018-04-16T00:34:20.776Z,61.80
2018-04-16T00:35:27.739Z,61.91
2018-04-16T00:36:35.267Z,61.84
2018-04-16T00:37:45.339Z,61.86
2018-04-16T00:38:49.211Z,61.82
2018-04-16T00:39:56.044Z,61.78
2018-04-16T00:41:04.070Z,61.84
2018-04-16T00:42:12.987Z,61.93
2018-04-16T00:43:23.011Z,62.02
2018-04-16T00:44:31.832Z,62.08
2018-04-16T00:45:45.064Z,62.20
2018-04-16T00:46:53.483Z,62.24
2018-04-16T00:48:02.500Z,62.38
2018-04-16T00:49:09.747Z,62.51
2018-04-16T00:50:17.105Z,62.61
2018-04-16T00:51:23.755Z,62.71
2018-04-16T00:52:37.100Z,62.77
2018-04-16T00:53:48.196Z,62.83
2018-04-16T00:54:55.308Z,62.94
2018-04-16T00:56:06.172Z,62.97
2018-04-16T00:57:16.248Z,62.97
2018-04-16T00:58:26.157Z,62.91
2018-04-16T00:59:38.800Z,62.91
2018-04-16T01:00:45.757Z,62.97
2018-04-16T01:01:52.815Z,62.97
2018-04-16T01:02:59.516Z,62.96
2018-04-16T01:04:07.227Z,62.98
2018-04-16T01:05:14.172Z,63.00
2018-04-16T01:07:29.878Z,63.05
2018-04-16T01:08:36.622Z,63.15
2018-04-16T01:09:43.541Z,63.18
2018-04-16T01:10:51.583Z,63.17
2018-04-16T01:12:03.607Z,63.17
2018-04-16T01:13:10.496Z,63.21
2018-04-16T01:14:23.534Z,63.17
2018-04-16T01:15:30.422Z,63.12
2018-04-16T01:16:39.466Z,63.20
2018-04-16T01:17:48.494Z,63.34
2018-04-16T01:18:55.186Z,63.42
2018-04-16T01:20:03.198Z,63.50
2018-04-16T01:21:12.987Z,63.58
2018-04-16T01:22:21.305Z,63.60
2018-04-16T01:23:28.287Z,63.75
2018-04-16T01:24:40.419Z,63.82
2018-04-16T01:25:48.552Z,63.89
2018-04-16T01:26:55.498Z,64.00
2018-04-16T01:28:06.322Z,64.11
2018-04-16T01:29:18.014Z,64.19
2018-04-16T01:30:24.946Z,64.33
2018-04-16T01:31:31.938Z,64.42
2018-04-16T01:32:42.767Z,64.58
2018-04-16T01:33:51.782Z,64.71
2018-04-16T01:35:01.789Z,64.79
2018-04-16T01:36:12.679Z,64.89
2018-04-16T01:37:19.819Z,65.02
2018-04-16T01:38:30.766Z,65.16
2018-04-16T01:39:42.682Z,65.27
2018-04-16T01:40:55.427Z,65.41
2018-04-16T01:42:06.201Z,65.39
2018-04-16T01:43:13.198Z,65.33
2018-04-16T01:44:20.014Z,65.38
2018-04-16T01:45:28.235Z,65.43
2018-04-16T01:46:37.482Z,65.52
2018-04-16T01:47:45.487Z,65.63
2018-04-16T01:48:53.203Z,65.73
2018-04-16T01:50:02.246Z,65.88
2018-04-16T01:51:13.399Z,66.03
2018-04-16T01:52:21.334Z,66.14
2018-04-16T01:53:29.899Z,66.21
2018-04-16T01:54:37.094Z,66.23
2018-04-16T01:59:04.317Z,66.32
2018-04-16T02:00:13.445Z,66.78
2018-04-16T02:01:22.390Z,66.84
2018-04-16T02:02:29.470Z,66.93
2018-04-16T02:03:36.383Z,66.99
2018-04-16T02:04:45.322Z,67.09
2018-04-16T02:05:58.483Z,67.15
2018-04-16T02:07:05.405Z,67.29
2018-04-16T02:11:35.226Z,67.42
2018-04-16T02:12:42.067Z,67.82
2018-04-16T02:14:54.316Z,67.91
2018-04-16T02:16:02.177Z,68.08
2018-04-16T02:17:12.292Z,68.17
2018-04-16T02:18:19.155Z,68.24
2018-04-16T02:19:28.071Z,68.26
2018-04-16T02:20:40.130Z,68.30
2018-04-16T02:21:50.037Z,68.34
2018-04-16T02:23:03.187Z,68.41
2018-04-16T02:24:12.200Z,68.42
2018-04-16T02:25:21.163Z,68.48
2018-04-16T02:26:32.237Z,68.57
2018-04-16T02:27:49.049Z,68.67
2018-04-16T02:28:56.134Z,68.76
2018-04-16T02:30:07.285Z,68.88
2018-04-16T02:31:17.247Z,69.05
2018-04-16T02:32:24.103Z,69.16
2018-04-16T02:38:58.468Z,69.28
2018-04-16T02:40:07.434Z,69.70
2018-04-16T02:42:19.107Z,69.83
2018-04-16T02:43:26.070Z,70.08
2018-04-16T02:44:33.771Z,70.23
2018-04-16T02:45:44.875Z,70.32
2018-04-16T02:46:52.876Z,70.41
2018-04-16T02:48:05.812Z,70.57
2018-04-16T02:49:13.882Z,70.69
2018-04-16T02:50:21.791Z,70.80
2018-04-16T02:51:28.699Z,70.88
2018-04-16T02:52:41.746Z,70.94
2018-04-16T02:53:48.431Z,71.04
2018-04-16T02:54:55.267Z,71.16
2018-04-16T02:56:03.100Z,71.26
2018-04-16T02:57:10.083Z,71.33
2018-04-16T02:58:17.238Z,71.41
2018-04-16T02:59:25.429Z,71.51
2018-04-16T03:00:32.408Z,71.58
2018-04-16T03:01:39.231Z,71.67
2018-04-16T03:02:46.204Z,71.73
2018-04-16T03:03:53.139Z,71.85
2018-04-16T03:05:00.340Z,71.96
2018-04-16T03:07:12.098Z,72.03
2018-04-16T03:08:21.170Z,72.19
2018-04-16T03:09:34.221Z,72.23
2018-04-16T03:10:41.176Z,72.30
2018-04-16T03:11:48.479Z,72.39
2018-04-16T03:12:57.495Z,72.51
2018-04-16T03:14:04.471Z,72.67
2018-04-16T03:15:13.457Z,72.88
2018-04-16T03:16:26.739Z,73.05
2018-04-16T03:17:33.855Z,73.20
2018-04-16T03:18:42.879Z,73.28
2018-04-16T03:19:49.746Z,73.41
2018-04-16T03:20:59.898Z,73.43
2018-04-16T03:22:11.755Z,73.47
2018-04-16T03:23:24.833Z,73.49
2018-04-16T03:24:37.852Z,73.50
2018-04-16T03:25:45.140Z,73.59
2018-04-16T03:26:54.182Z,73.66
2018-04-16T03:28:01.170Z,73.76
2018-04-16T03:30:15.836Z,73.83
2018-04-16T03:31:22.907Z,73.98
2018-04-16T03:32:34.892Z,74.08
2018-04-16T03:33:41.899Z,74.18
2018-04-16T03:34:48.608Z,74.28
2018-04-16T03:35:55.768Z,74.37
2018-04-16T03:37:03.429Z,74.48
2018-04-16T03:38:12.484Z,74.52
2018-04-16T03:39:19.389Z,74.56
2018-04-16T03:40:26.600Z,74.59
2018-04-16T03:41:33.494Z,74.70
2018-04-16T03:42:40.515Z,74.77
2018-04-16T03:43:47.354Z,74.75
2018-04-16T03:45:00.315Z,74.74
2018-04-16T03:46:07.236Z,74.74
2018-04-16T03:47:15.194Z,74.80
2018-04-16T03:48:22.143Z,74.85
2018-04-16T03:49:28.968Z,74.85
2018-04-16T03:50:36.159Z,74.87
2018-04-16T03:51:43.062Z,74.89
2018-04-16T03:52:49.915Z,74.92
2018-04-16T03:53:56.699Z,74.94
2018-04-16T03:55:03.484Z,74.95
2018-04-16T03:56:10.321Z,75.00
2018-04-16T03:57:17.018Z,75.05
2018-04-16T03:58:23.742Z,75.04
2018-04-16T03:59:30.542Z,75.00
2018-04-16T04:00:37.261Z,74.96
2018-04-16T04:01:44.001Z,74.95
2018-04-16T04:02:50.711Z,74.93
2018-04-16T04:03:57.420Z,74.85
2018-04-16T04:05:04.163Z,74.85
2018-04-16T04:06:11.131Z,74.86
2018-04-16T04:07:17.828Z,74.88
2018-04-16T04:08:24.567Z,74.95
2018-04-16T04:09:31.628Z,74.92
2018-04-16T04:10:38.334Z,74.86
2018-04-16T04:11:45.079Z,74.83
2018-04-16T04:12:52.220Z,74.82
2018-04-16T04:13:59.041Z,74.84
2018-04-16T04:15:05.736Z,74.74
2018-04-16T04:16:12.446Z,74.66
2018-04-16T04:17:19.226Z,74.60
2018-04-16T04:18:25.954Z,74.61
2018-04-16T04:19:32.747Z,74.66
2018-04-16T04:20:39.459Z,74.69
2018-04-16T04:21:46.178Z,74.65
2018-04-16T04:22:52.910Z,74.56
2018-04-16T04:23:59.818Z,74.46
2018-04-16T04:25:09.327Z,74.43
2018-04-16T04:26:16.133Z,74.35
2018-04-16T04:27:23.069Z,74.37
2018-04-16T04:28:29.768Z,74.29
2018-04-16T04:29:39.639Z,74.26
2018-04-16T04:30:46.408Z,74.26
2018-04-16T04:31:53.134Z,74.18
2018-04-16T04:32:59.950Z,74.18
2018-04-16T04:34:06.679Z,74.17
2018-04-16T04:35:13.394Z,74.14
2018-04-16T04:36:20.192Z,74.06
2018-04-16T04:37:27.024Z,74.00
2018-04-16T04:38:33.780Z,73.93
2018-04-16T04:39:40.755Z,73.92
2018-04-16T04:40:47.487Z,73.92
2018-04-16T04:41:54.250Z,73.94
2018-04-16T04:43:00.990Z,73.91
2018-04-16T04:44:07.704Z,73.83
2018-04-16T04:45:14.597Z,73.78
2018-04-16T04:46:21.324Z,73.78
2018-04-16T04:47:28.052Z,73.70
2018-04-16T04:48:34.775Z,73.67
2018-04-16T04:49:41.587Z,73.64
2018-04-16T04:50:48.307Z,73.58
2018-04-16T04:51:55.051Z,73.62
2018-04-16T04:53:02.219Z,73.70
2018-04-16T04:54:08.897Z,73.73
2018-04-16T04:55:15.802Z,73.76
2018-04-16T04:56:22.810Z,73.69
2018-04-16T04:57:29.591Z,73.69
2018-04-16T04:58:36.336Z,73.68
2018-04-16T04:59:43.301Z,73.68
2018-04-16T05:00:50.058Z,73.72
2018-04-16T05:01:56.779Z,73.77
2018-04-16T05:03:03.559Z,73.75
2018-04-16T05:04:10.380Z,73.73
2018-04-16T05:05:17.126Z,73.73
2018-04-16T05:06:23.905Z,73.75
2018-04-16T05:07:30.799Z,73.76
2018-04-16T05:08:37.558Z,73.75
2018-04-16T05:09:44.308Z,73.77
2018-04-16T05:10:51.059Z,73.79
2018-04-16T05:11:57.823Z,73.82
2018-04-16T05:13:04.561Z,73.80
2018-04-16T05:14:11.319Z,73.77
2018-04-16T05:15:18.064Z,73.77
2018-04-16T05:16:24.884Z,73.85
2018-04-16T05:17:31.601Z,73.93
2018-04-16T05:18:38.373Z,73.93
2018-04-16T05:19:45.427Z,73.95
2018-04-16T05:20:52.223Z,73.97
2018-04-16T05:21:58.952Z,73.99
2018-04-16T05:23:05.736Z,74.00
2018-04-16T05:24:12.483Z,74.01
2018-04-16T05:25:19.259Z,74.04
2018-04-16T05:26:26.116Z,74.01
2018-04-16T05:27:32.862Z,74.05
2018-04-16T05:28:39.699Z,74.11
2018-04-16T05:29:46.424Z,74.17
2018-04-16T05:30:53.230Z,74.21
2018-04-16T05:31:59.991Z,74.33
2018-04-16T05:33:06.722Z,74.42
2018-04-16T05:34:13.493Z,74.54
2018-04-16T05:35:20.324Z,74.59
2018-04-16T05:36:27.072Z,74.71
2018-04-16T05:37:33.850Z,74.76
2018-04-16T05:38:40.608Z,74.78
2018-04-16T05:39:47.493Z,74.88
2018-04-16T05:40:54.242Z,74.93
2018-04-16T05:42:00.971Z,75.03
2018-04-16T05:43:08.076Z,75.12
2018-04-16T05:44:14.965Z,75.22
2018-04-16T05:45:21.796Z,75.37
2018-04-16T05:46:28.760Z,75.52
2018-04-16T05:47:35.522Z,75.64
2018-04-16T05:48:42.284Z,75.77
2018-04-16T05:49:49.103Z,75.93
2018-04-16T05:50:55.836Z,76.06
2018-04-16T05:52:02.587Z,76.22
2018-04-16T05:53:09.330Z,76.34
2018-04-16T05:54:16.123Z,76.49
2018-04-16T05:55:22.907Z,76.61
2018-04-16T05:56:29.669Z,76.82
2018-04-16T05:57:36.386Z,76.98
2018-04-16T05:58:43.168Z,77.06
2018-04-16T05:59:49.863Z,77.11
2018-04-16T06:00:56.603Z,77.15
2018-04-16T06:02:03.316Z,77.22
2018-04-16T06:03:10.047Z,77.37
2018-04-16T06:04:16.743Z,77.45
2018-04-16T06:05:23.706Z,77.55
2018-04-16T06:06:30.516Z,77.57
2018-04-16T06:07:37.354Z,77.69
2018-04-16T06:08:44.075Z,77.76
2018-04-16T06:09:50.867Z,77.89
2018-04-16T06:10:57.631Z,77.98
2018-04-16T06:12:04.375Z,78.00
2018-04-16T06:13:11.120Z,78.10
2018-04-16T06:14:17.835Z,78.17
2018-04-16T06:15:24.566Z,78.29
2018-04-16T06:16:31.303Z,78.50
2018-04-16T06:17:38.063Z,78.67
2018-04-16T06:18:44.794Z,78.95
2018-04-16T06:19:51.512Z,79.19
2018-04-16T06:20:58.276Z,79.42
2018-04-16T06:22:05.072Z,79.73
2018-04-16T06:23:11.799Z,79.89
2018-04-16T06:24:18.583Z,80.06
2018-04-16T06:25:25.329Z,80.25
2018-04-16T06:26:32.118Z,80.46
2018-04-16T06:27:38.871Z,80.70
2018-04-16T06:28:45.579Z,80.81
2018-04-16T06:29:52.489Z,80.93
2018-04-16T06:30:59.219Z,81.16
2018-04-16T06:32:06.086Z,81.45
2018-04-16T06:33:12.888Z,81.63
2018-04-16T06:34:19.595Z,81.89
2018-04-16T06:35:26.312Z,82.12
2018-04-16T06:36:33.107Z,82.30
2018-04-16T06:37:39.818Z,82.58
2018-04-16T06:38:46.832Z,82.83
2018-04-16T06:39:53.268Z,83.04
2018-04-16T06:40:59.991Z,83.28
2018-04-16T06:42:06.815Z,83.52
2018-04-16T06:43:13.553Z,83.74
2018-04-16T06:44:20.295Z,83.98
2018-04-16T06:45:27.063Z,84.15
2018-04-16T06:46:33.775Z,84.39
2018-04-16T06:47:40.607Z,84.60
2018-04-16T06:48:47.388Z,84.83
2018-04-16T06:49:54.083Z,85.01
2018-04-16T06:51:00.823Z,85.23
2018-04-16T06:52:07.540Z,85.41
2018-04-16T06:53:14.320Z,85.58
2018-04-16T06:54:21.115Z,85.79
2018-04-16T06:55:27.852Z,85.97
2018-04-16T06:56:34.607Z,86.14
2018-04-16T06:57:41.532Z,86.33
2018-04-16T06:58:48.316Z,86.52
2018-04-16T06:59:55.068Z,86.68
2018-04-16T07:01:01.908Z,86.85
2018-04-16T07:02:08.697Z,86.86
2018-04-16T07:03:15.475Z,86.95
2018-04-16T07:04:27.469Z,87.01
2018-04-16T07:05:34.276Z,87.08
2018-04-16T07:06:41.048Z,87.12
2018-04-16T07:07:47.921Z,87.17
2018-04-16T07:08:49.695Z,87.21
2018-04-16T07:09:56.436Z,87.20
2018-04-16T07:11:03.178Z,87.22
2018-04-16T07:12:09.957Z,87.35
2018-04-16T07:13:16.695Z,87.44
2018-04-16T07:14:23.460Z,87.55
2018-04-16T07:15:30.219Z,87.53
2018-04-16T07:16:36.996Z,87.52
2018-04-16T07:17:43.821Z,87.46
2018-04-16T07:18:50.582Z,87.37
2018-04-16T07:19:57.427Z,87.33
2018-04-16T07:21:04.263Z,87.31
2018-04-16T07:22:10.993Z,87.29
2018-04-16T07:23:17.831Z,87.30
2018-04-16T07:24:24.628Z,87.23
2018-04-16T07:25:31.676Z,87.10
2018-04-16T07:26:43.690Z,87.08
2018-04-16T07:27:45.483Z,86.99
2018-04-16T07:28:52.218Z,86.95
2018-04-16T07:29:59.183Z,86.96
2018-04-16T07:31:05.928Z,87.03
2018-04-16T07:32:12.829Z,87.07
2018-04-16T07:33:19.469Z,86.96
2018-04-16T07:34:26.380Z,86.90
2018-04-16T07:35:33.158Z,86.83
2018-04-16T07:36:39.939Z,86.73
2018-04-16T07:37:46.707Z,86.74
2018-04-16T07:38:53.455Z,86.57
2018-04-16T07:40:00.339Z,86.55
2018-04-16T07:41:07.191Z,86.55
2018-04-16T07:42:14.012Z,86.53
2018-04-16T07:43:20.847Z,86.59
2018-04-16T07:44:27.701Z,86.49
2018-04-16T07:45:34.799Z,86.44
2018-04-16T07:46:41.696Z,86.37
2018-04-16T07:47:48.558Z,86.56
2018-04-16T07:48:55.346Z,86.65
2018-04-16T07:50:02.085Z,86.74
2018-04-16T07:51:08.888Z,86.76
2018-04-16T07:52:15.659Z,86.70
2018-04-16T07:53:22.514Z,86.80
2018-04-16T07:54:29.255Z,86.62
2018-04-16T07:55:36.052Z,86.44
2018-04-16T07:56:42.831Z,86.34
2018-04-16T07:57:49.599Z,86.53
2018-04-16T07:58:56.346Z,86.55
2018-04-16T08:00:03.065Z,86.45
2018-04-16T08:01:09.820Z,86.30
2018-04-16T08:02:16.664Z,86.06
2018-04-16T08:03:23.399Z,86.01
2018-04-16T08:04:30.140Z,86.14
2018-04-16T08:05:37.175Z,86.28
2018-04-16T08:06:43.947Z,86.41
2018-04-16T08:07:50.735Z,86.46
2018-04-16T08:08:57.507Z,86.64
2018-04-16T08:10:04.231Z,86.78
2018-04-16T08:11:11.018Z,86.73
2018-04-16T08:12:17.936Z,86.58
2018-04-16T08:13:24.731Z,86.62
2018-04-16T08:14:31.966Z,86.50
2018-04-16T08:15:38.806Z,86.39
2018-04-16T08:16:50.854Z,86.20
2018-04-16T08:17:52.590Z,86.15
2018-04-16T08:18:59.355Z,85.91
2018-04-16T08:20:06.113Z,85.86
2018-04-16T08:21:18.097Z,85.82
2018-04-16T08:22:19.883Z,85.77
2018-04-16T08:23:26.651Z,85.64
2018-04-16T08:24:33.447Z,85.69
2018-04-16T08:25:45.368Z,85.31
2018-04-16T08:26:47.388Z,85.28
2018-04-16T08:27:54.185Z,85.06
2018-04-16T08:29:01.030Z,84.99
2018-04-16T08:30:07.818Z,84.70
2018-04-16T08:31:14.582Z,84.51
2018-04-16T08:32:21.475Z,84.47
2018-04-16T08:33:28.279Z,84.35
2018-04-16T08:34:35.031Z,84.31
2018-04-16T08:35:41.887Z,84.35
2018-04-16T08:36:48.790Z,84.02
2018-04-16T08:37:55.658Z,84.00
2018-04-16T08:39:02.408Z,83.91
2018-04-16T08:40:09.514Z,83.58
2018-04-16T08:41:16.270Z,83.66
2018-04-16T08:42:23.023Z,83.89
2018-04-16T08:43:29.857Z,83.67
2018-04-16T08:44:36.631Z,83.53
2018-04-16T08:45:43.390Z,83.43
2018-04-16T08:46:50.236Z,82.98
2018-04-16T08:47:57.064Z,83.12
2018-04-16T08:49:03.833Z,83.12
2018-04-16T08:50:10.644Z,82.96
2018-04-16T08:51:17.410Z,82.91
2018-04-16T08:52:24.178Z,82.87
2018-04-16T08:53:31.038Z,83.16
2018-04-16T08:54:42.979Z,82.96
2018-04-16T08:55:49.738Z,83.04
2018-04-16T08:56:56.783Z,82.73
2018-04-16T08:58:03.499Z,82.24
2018-04-16T08:59:05.347Z,82.24
2018-04-16T09:00:17.328Z,82.32
2018-04-16T09:01:19.136Z,82.53
2018-04-16T09:02:31.069Z,82.28
2018-04-16T09:03:37.907Z,81.75
2018-04-16T09:04:39.767Z,81.29
2018-04-16T09:05:51.838Z,81.18
2018-04-16T09:06:53.771Z,81.03
2018-04-16T09:08:05.772Z,80.83
2018-04-16T09:09:12.795Z,80.60
2018-04-16T09:10:14.642Z,80.38
2018-04-16T09:11:26.612Z,79.60
2018-04-16T09:12:28.435Z,79.32
2018-04-16T09:13:40.239Z,79.57
2018-04-16T09:14:47.314Z,79.67
2018-04-16T09:15:49.223Z,79.54
2018-04-16T09:17:01.196Z,79.49
2018-04-16T09:18:08.224Z,79.40
2018-04-16T09:19:09.976Z,78.77
2018-04-16T09:20:16.843Z,78.64
2018-04-16T09:21:23.628Z,78.00
2018-04-16T09:22:30.428Z,78.08
2018-04-16T09:23:37.323Z,77.56
2018-04-16T09:24:44.137Z,77.25
2018-04-16T09:25:50.994Z,77.30
2018-04-16T09:26:57.766Z,77.10
2018-04-16T09:28:04.584Z,76.69
2018-04-16T09:29:11.424Z,76.82
2018-04-16T09:30:18.151Z,76.91
2018-04-16T09:31:24.912Z,76.95
2018-04-16T09:32:36.888Z,76.67
2018-04-16T09:33:38.751Z,75.97
2018-04-16T09:34:45.575Z,75.89
2018-04-16T09:35:52.355Z,75.78
2018-04-16T09:36:59.070Z,75.80
2018-04-16T09:38:05.831Z,75.25
2018-04-16T09:39:12.579Z,74.81
2018-04-16T09:40:19.340Z,74.86
2018-04-16T09:41:26.109Z,74.19
2018-04-16T09:42:32.855Z,74.21
2018-04-16T09:43:39.590Z,74.22
2018-04-16T09:44:46.334Z,73.60
2018-04-16T09:45:53.106Z,73.44
2018-04-16T09:46:59.867Z,73.33
2018-04-16T09:48:06.638Z,73.06
2018-04-16T09:49:13.415Z,73.16
2018-04-16T09:50:20.254Z,72.51
2018-04-16T09:51:27.082Z,71.98
2018-04-16T09:52:33.820Z,71.94
2018-04-16T09:53:40.640Z,71.21
2018-04-16T09:54:47.471Z,70.91
2018-04-16T09:55:54.388Z,70.66
2018-04-16T09:57:01.251Z,69.99
2018-04-16T09:58:08.047Z,69.66
2018-04-16T09:59:14.802Z,69.07
2018-04-16T10:00:21.560Z,68.89
2018-04-16T10:01:28.537Z,68.19
2018-04-16T10:02:35.319Z,67.72
2018-04-16T10:03:42.217Z,67.43
2018-04-16T10:04:49.251Z,67.02
2018-04-16T10:05:56.025Z,66.69
2018-04-16T10:07:02.846Z,65.99
2018-04-16T10:08:09.672Z,65.51
2018-04-16T10:09:16.479Z,64.94
2018-04-16T10:10:23.255Z,64.03
2018-04-16T10:11:30.130Z,63.72
2018-04-16T10:12:36.927Z,63.51
2018-04-16T10:13:43.668Z,63.14
2018-04-16T10:14:50.399Z,62.51
2018-04-16T10:15:57.468Z,62.22
2018-04-16T10:17:04.223Z,61.74
2018-04-16T10:18:10.986Z,61.13
2018-04-16T10:19:22.874Z,60.79
2018-04-16T10:20:24.592Z,60.22
2018-04-16T10:21:31.488Z,59.75
2018-04-16T10:22:38.251Z,59.57
2018-04-16T10:23:44.986Z,59.34
2018-04-16T10:24:51.840Z,58.93
2018-04-16T10:25:58.618Z,58.71
2018-04-16T10:27:05.387Z,58.11
2018-04-16T10:28:12.239Z,57.75
2018-04-16T10:29:19.341Z,57.71
2018-04-16T10:30:26.132Z,57.51
2018-04-16T10:31:32.884Z,57.32
2018-04-16T10:32:39.829Z,57.18
2018-04-16T10:33:46.599Z,57.34
2018-04-16T10:34:53.351Z,57.14
2018-04-16T10:36:00.238Z,56.72
2018-04-16T10:37:06.988Z,56.82
2018-04-16T10:38:13.780Z,56.71
2018-04-16T10:39:20.656Z,56.53
2018-04-16T10:40:27.423Z,56.35
2018-04-16T10:41:34.200Z,56.14
2018-04-16T10:42:40.946Z,56.04
2018-04-16T10:43:47.709Z,56.16
2018-04-16T10:44:54.527Z,56.07
2018-04-16T10:46:01.292Z,55.82
2018-04-16T10:47:13.283Z,55.84
2018-04-16T10:48:15.032Z,55.73
2018-04-16T10:49:21.906Z,55.63
2018-04-16T10:50:28.659Z,55.44
2018-04-16T10:51:35.403Z,55.11
2018-04-16T10:52:42.200Z,55.11
2018-04-16T10:53:48.970Z,55.23
2018-04-16T10:54:56.020Z,54.72
2018-04-16T10:56:03.096Z,54.59
2018-04-16T10:57:09.367Z,54.82
2018-04-16T10:58:16.214Z,54.43
2018-04-16T10:59:23.022Z,54.58
2018-04-16T11:00:29.819Z,54.12
2018-04-16T11:01:36.581Z,54.29
2018-04-16T11:02:43.371Z,54.09
2018-04-16T11:03:50.239Z,53.87
2018-04-16T11:04:57.033Z,53.75
2018-04-16T11:06:03.855Z,53.41
2018-04-16T11:07:10.636Z,53.23
2018-04-16T11:08:17.427Z,53.07
2018-04-16T11:09:24.200Z,52.76
2018-04-16T11:10:31.074Z,52.68
2018-04-16T11:11:37.822Z,52.52
2018-04-16T11:12:49.922Z,52.83
2018-04-16T11:13:51.736Z,52.38
2018-04-16T11:14:58.617Z,52.29
2018-04-16T11:16:05.366Z,52.34
2018-04-16T11:17:12.145Z,52.14
2018-04-16T11:18:19.027Z,51.82
2018-04-16T11:19:31.068Z,51.63
2018-04-16T11:20:32.835Z,51.87
2018-04-16T11:21:39.614Z,51.97
2018-04-16T11:22:46.379Z,51.94
2018-04-16T11:23:53.338Z,51.82
2018-04-16T11:25:00.189Z,51.99
2018-04-16T11:26:07.030Z,52.09
2018-04-16T11:27:13.853Z,52.26
2018-04-16T11:28:20.687Z,52.14
2018-04-16T11:29:27.589Z,52.02
2018-04-16T11:30:34.420Z,52.09
2018-04-16T11:31:41.202Z,52.24
2018-04-16T11:32:48.182Z,52.00
2018-04-16T11:33:54.979Z,52.03
2018-04-16T11:35:01.752Z,51.70
2018-04-16T11:36:08.775Z,51.43
2018-04-16T11:37:15.587Z,51.16
2018-04-16T11:38:22.650Z,51.11
2018-04-16T11:39:29.662Z,51.01
2018-04-16T11:40:36.206Z,50.97
2018-04-16T11:41:43.142Z,51.19
2018-04-16T11:42:49.915Z,51.25
2018-04-16T11:43:56.933Z,51.16
2018-04-16T11:45:03.880Z,51.16
2018-04-16T11:46:11.260Z,51.25
2018-04-16T11:47:17.700Z,51.39
2018-04-16T11:48:24.472Z,51.29
2018-04-16T11:49:31.267Z,51.15
2018-04-16T11:50:38.151Z,51.28
2018-04-16T11:51:44.920Z,51.33
2018-04-16T11:52:51.759Z,51.21
2018-04-16T11:53:58.576Z,51.23
2018-04-16T11:55:05.378Z,51.30
2018-04-16T11:56:12.127Z,51.01
2018-04-16T11:57:18.849Z,51.07
2018-04-16T11:58:25.660Z,50.88
2018-04-16T11:59:32.624Z,50.71
2018-04-16T12:00:39.451Z,50.70
2018-04-16T12:01:46.183Z,50.96
2018-04-16T12:02:53.255Z,50.94
2018-04-16T12:04:00.020Z,51.04
2018-04-16T12:05:06.788Z,51.17
2018-04-16T12:06:13.918Z,51.20
2018-04-16T12:07:20.816Z,51.17
2018-04-16T12:08:27.600Z,51.06
2018-04-16T12:09:34.359Z,50.93
2018-04-16T12:10:41.266Z,50.92
2018-04-16T12:11:53.212Z,50.65
2018-04-16T12:12:55.019Z,50.71
2018-04-16T12:14:01.781Z,50.78
2018-04-16T12:15:08.522Z,50.77
2018-04-16T12:16:15.346Z,50.66
2018-04-16T12:17:22.112Z,50.58
2018-04-16T12:18:28.918Z,50.60
2018-04-16T12:19:35.674Z,50.61
2018-04-16T12:20:42.481Z,50.76
2018-04-16T12:21:49.203Z,50.40
2018-04-16T12:22:55.935Z,50.54
2018-04-16T12:24:02.727Z,50.60
2018-04-16T12:24:20.916Z,50.51
2018-04-16T12:25:27.820Z,50.54
2018-04-16T12:26:34.617Z,50.00
2018-04-16T12:27:41.591Z,50.08
2018-04-16T12:28:48.287Z,49.92
2018-04-16T12:29:55.017Z,49.48
2018-04-16T12:31:01.886Z,49.29
2018-04-16T12:32:08.651Z,49.30
2018-04-16T12:33:15.391Z,49.38
2018-04-16T12:34:22.251Z,49.34
2018-04-16T12:35:29.048Z,49.21
2018-04-16T12:36:35.810Z,49.20
2018-04-16T12:37:42.546Z,48.95
2018-04-16T12:38:49.339Z,48.84
2018-04-16T12:39:56.098Z,48.97
2018-04-16T12:41:02.869Z,48.51
2018-04-16T12:42:09.628Z,48.35
2018-04-16T12:43:16.490Z,48.32
2018-04-16T12:44:23.248Z,48.48
2018-04-16T12:45:29.996Z,48.32
2018-04-16T12:46:36.792Z,48.42
2018-04-16T12:47:43.591Z,48.46
2018-04-16T12:48:50.359Z,48.77
2018-04-16T12:49:57.223Z,49.04
2018-04-16T12:51:03.974Z,48.82
2018-04-16T12:52:10.755Z,48.83
2018-04-16T12:53:17.492Z,49.08
2018-04-16T12:54:24.268Z,49.34
2018-04-16T12:55:31.051Z,49.58
2018-04-16T12:56:37.826Z,49.71
2018-04-16T12:57:45.031Z,49.64
2018-04-16T12:58:51.868Z,49.79
2018-04-16T12:59:58.612Z,49.74
2018-04-16T13:01:05.379Z,49.21
2018-04-16T13:02:12.113Z,49.29
2018-04-16T13:03:18.956Z,49.02
2018-04-16T13:04:25.667Z,49.05
2018-04-16T13:05:32.428Z,48.90
2018-04-16T13:06:39.197Z,48.94
2018-04-16T13:07:46.075Z,48.89
2018-04-16T13:08:52.993Z,48.70
2018-04-16T13:09:59.844Z,48.68
2018-04-16T13:11:06.625Z,48.61
2018-04-16T13:12:13.402Z,48.32
2018-04-16T13:13:20.251Z,48.10
2018-04-16T13:14:26.996Z,48.14
2018-04-16T13:15:33.727Z,48.15
2018-04-16T13:16:40.471Z,48.06
2018-04-16T13:17:47.325Z,48.03
2018-04-16T13:18:54.120Z,48.03
2018-04-16T13:20:00.862Z,47.85
2018-04-16T13:21:13.060Z,47.41
2018-04-16T13:22:14.853Z,47.44
2018-04-16T13:23:26.803Z,47.34
2018-04-16T13:24:28.695Z,47.14
2018-04-16T13:25:35.519Z,46.92
2018-04-16T13:26:42.286Z,46.94
2018-04-16T13:27:49.165Z,46.91
2018-04-16T13:28:55.976Z,46.87
2018-04-16T13:30:07.981Z,46.52
2018-04-16T13:31:09.743Z,46.55
2018-04-16T13:32:16.497Z,46.66
2018-04-16T13:33:23.302Z,46.82
2018-04-16T13:34:30.062Z,46.40
2018-04-16T13:35:36.832Z,46.28
2018-04-16T13:36:43.587Z,46.04
2018-04-16T13:37:50.374Z,46.20
2018-04-16T13:38:57.176Z,46.11
2018-04-16T13:40:03.914Z,45.82
2018-04-16T13:41:10.679Z,45.74
2018-04-16T13:42:17.474Z,45.55
2018-04-16T13:43:24.218Z,45.53
2018-04-16T13:44:30.992Z,45.75
2018-04-16T13:45:37.711Z,45.52
2018-04-16T13:46:44.551Z,45.28
2018-04-16T13:47:51.289Z,45.11
2018-04-16T13:48:58.028Z,45.21
2018-04-16T13:50:04.803Z,44.99
2018-04-16T13:51:11.613Z,44.76
2018-04-16T13:52:18.318Z,44.68
2018-04-16T13:53:25.080Z,44.71
2018-04-16T13:54:31.843Z,44.66
2018-04-16T13:55:38.727Z,44.48
2018-04-16T13:56:45.470Z,44.44
2018-04-16T13:57:52.231Z,44.60
2018-04-16T13:58:58.964Z,44.41
2018-04-16T14:00:05.794Z,44.22
2018-04-16T14:01:12.556Z,44.32
2018-04-16T14:02:19.317Z,44.23
2018-04-16T14:03:26.059Z,44.26
2018-04-16T14:04:32.871Z,44.10
2018-04-16T14:05:39.616Z,44.05
2018-04-16T14:06:46.373Z,44.20
2018-04-16T14:07:53.115Z,44.38
2018-04-16T14:08:59.943Z,44.64
2018-04-16T14:10:06.775Z,44.98
2018-04-16T14:11:13.767Z,45.21
2018-04-16T14:12:20.523Z,45.35
2018-04-16T14:13:27.581Z,45.46
2018-04-16T14:14:34.316Z,45.22
2018-04-16T14:15:41.122Z,45.15
2018-04-16T14:16:47.840Z,45.35
2018-04-16T14:17:54.632Z,45.33
2018-04-16T14:19:01.375Z,45.42
2018-04-16T14:20:08.133Z,45.52
2018-04-16T14:21:14.899Z,45.66
2018-04-16T14:22:21.734Z,45.79
2018-04-16T14:23:28.547Z,45.57
2018-04-16T14:24:35.348Z,45.57
2018-04-16T14:25:47.343Z,45.66
2018-04-16T14:26:49.424Z,45.52
2018-04-16T14:27:56.267Z,45.46
2018-04-16T14:29:03.202Z,45.32
2018-04-16T14:30:09.878Z,45.14
2018-04-16T14:31:16.731Z,45.18
2018-04-16T14:32:23.558Z,45.13
2018-04-16T14:33:30.652Z,45.06
2018-04-16T14:34:37.508Z,45.17
2018-04-16T14:35:44.314Z,44.93
2018-04-16T14:36:51.483Z,44.74
2018-04-16T14:37:58.376Z,44.84
2018-04-16T14:39:05.173Z,44.79
2018-04-16T14:40:12.225Z,44.50
2018-04-16T14:41:19.122Z,44.27
2018-04-16T14:42:25.951Z,44.34